createdAt,value
2018-08-23T00:00:46.487Z,9.40
2018-08-23T00:03:20.281Z,9.73
2018-08-23T00:05:51.654Z,9.93
2018-08-23T00:08:19.316Z,10.47
2018-08-23T00:10:47.175Z,9.38
2018-08-23T00:13:14.355Z,10.40
2018-08-23T00:15:41.474Z,10.37
2018-08-23T00:18:08.639Z,9.67
2018-08-23T00:20:36.190Z,9.60
2018-08-23T00:23:04.068Z,9.20
2018-08-23T00:25:31.950Z,10.68
2018-08-23T00:27:59.078Z,9.83
2018-08-23T00:30:28.262Z,9.03
2018-08-23T00:32:55.773Z,9.30
2018-08-23T00:35:22.898Z,8.77
2018-08-23T00:37:50.066Z,10.70
2018-08-23T00:40:17.647Z,9.93
2018-08-23T00:42:46.991Z,10.10
2018-08-23T00:45:16.387Z,9.50
2018-08-23T00:47:43.690Z,10.57
2018-08-23T00:50:13.492Z,11.63
2018-08-23T00:52:45.786Z,10.80
2018-08-23T00:55:14.765Z,9.80
2018-08-23T00:57:42.095Z,10.87
2018-08-23T01:00:10.774Z,10.93
2018-08-23T01:02:37.914Z,10.83
2018-08-23T01:05:05.101Z,11.53
2018-08-23T01:07:33.149Z,12.63
2018-08-23T01:10:00.280Z,10.83
2018-08-23T01:12:27.873Z,10.57
2018-08-23T01:14:55.022Z,11.83
2018-08-23T01:17:22.155Z,11.73
2018-08-23T01:19:59.077Z,12.23
2018-08-23T01:22:26.231Z,10.77
2018-08-23T01:24:53.360Z,12.53
2018-08-23T01:27:26.267Z,13.00
2018-08-23T01:29:53.382Z,12.63
2018-08-23T01:32:26.395Z,12.67
2018-08-23T01:34:53.509Z,11.97
2018-08-23T01:37:33.082Z,12.67
2018-08-23T01:40:01.246Z,12.63
2018-08-23T01:42:33.455Z,12.37
2018-08-23T01:45:01.831Z,13.57
2018-08-23T01:47:33.255Z,12.57
2018-08-23T01:50:00.426Z,13.60
2018-08-23T01:52:27.559Z,13.90
2018-08-23T01:54:55.003Z,15.60
2018-08-23T01:57:26.700Z,14.13
2018-08-23T01:59:53.813Z,13.57
2018-08-23T02:02:21.046Z,14.20
2018-08-23T02:04:48.197Z,14.00
2018-08-23T02:07:15.485Z,14.57
2018-08-23T02:09:42.612Z,13.73
2018-08-23T02:12:09.731Z,12.63
2018-08-23T02:14:41.446Z,12.27
2018-08-23T02:17:08.526Z,15.57
2018-08-23T02:19:41.645Z,13.97
2018-08-23T02:22:08.749Z,15.10
2018-08-23T02:24:35.851Z,13.47
2018-08-23T02:27:02.994Z,13.13
2018-08-23T02:29:38.546Z,11.77
2018-08-23T02:32:06.603Z,11.83
2018-08-23T02:34:38.663Z,11.73
2018-08-23T02:37:05.795Z,14.40
2018-08-23T02:39:32.927Z,12.70
2018-08-23T02:42:00.096Z,12.07
2018-08-23T02:44:27.199Z,14.63
2018-08-23T02:46:54.375Z,15.60
2018-08-23T02:49:21.500Z,16.83
2018-08-23T02:51:50.978Z,16.90
2018-08-23T02:54:18.228Z,14.53
2018-08-23T02:56:50.510Z,14.80
2018-08-23T02:59:17.738Z,13.90
2018-08-23T03:01:46.289Z,14.53
2018-08-23T03:04:19.560Z,14.93
2018-08-23T03:06:52.488Z,16.00
2018-08-23T03:09:28.497Z,17.10
2018-08-23T03:11:56.746Z,15.93
2018-08-23T03:14:24.746Z,17.60
2018-08-23T03:17:30.339Z,14.60
2018-08-23T03:20:22.835Z,15.97
2018-08-23T03:22:54.015Z,12.77
2018-08-23T03:25:22.415Z,16.10
2018-08-23T03:27:50.966Z,16.93
2018-08-23T03:30:18.881Z,16.00
2018-08-23T03:32:46.115Z,16.13
2018-08-23T03:35:13.294Z,14.43
2018-08-23T03:37:40.493Z,13.67
2018-08-23T03:40:08.869Z,14.77
2018-08-23T03:42:36.003Z,16.23
2018-08-23T03:45:03.165Z,17.63
2018-08-23T03:47:35.332Z,17.47
2018-08-23T03:50:02.482Z,17.10
2018-08-23T03:52:35.560Z,16.83
2018-08-23T03:55:02.748Z,16.27
2018-08-23T03:57:35.651Z,16.10
2018-08-23T04:00:02.843Z,15.07
2018-08-23T04:02:30.024Z,15.90
2018-08-23T04:05:05.711Z,15.37
2018-08-23T04:07:32.853Z,15.67
2018-08-23T04:09:59.983Z,14.13
2018-08-23T04:12:27.078Z,15.20
2018-08-23T04:14:55.186Z,14.73
2018-08-23T04:17:22.286Z,15.67
2018-08-23T04:19:49.449Z,15.43
2018-08-23T04:22:17.260Z,16.67
2018-08-23T04:24:54.218Z,18.53
2018-08-23T04:27:21.375Z,18.80
2018-08-23T04:29:49.208Z,17.87
2018-08-23T04:32:28.953Z,17.93
2018-08-23T04:34:57.576Z,16.97
2018-08-23T04:37:25.128Z,18.43
2018-08-23T04:39:58.035Z,17.17
2018-08-23T04:42:25.169Z,16.10
2018-08-23T04:44:52.334Z,16.00
2018-08-23T04:47:19.956Z,16.33
2018-08-23T04:49:47.124Z,16.03
2018-08-23T04:52:14.386Z,16.53
2018-08-23T04:54:41.515Z,16.13
2018-08-23T04:57:08.639Z,17.73
2018-08-23T04:59:35.782Z,17.80
2018-08-23T05:02:03.018Z,18.00
2018-08-23T05:04:30.280Z,17.93
2018-08-23T05:06:57.416Z,17.40
2018-08-23T05:09:24.923Z,16.63
2018-08-23T05:11:52.201Z,17.10
2018-08-23T05:14:19.363Z,16.33
2018-08-23T05:16:46.610Z,17.73
2018-08-23T05:19:13.878Z,17.50
2018-08-23T05:21:41.067Z,17.70
2018-08-23T05:24:11.590Z,16.57
2018-08-23T05:26:39.022Z,15.70
2018-08-23T05:29:07.172Z,15.03
2018-08-23T05:31:34.470Z,15.63
2018-08-23T05:34:03.723Z,15.10
2018-08-23T05:36:30.870Z,14.03
2018-08-23T05:38:58.329Z,14.05
2018-08-23T05:41:25.466Z,14.03
2018-08-23T05:44:02.350Z,14.80
2018-08-23T05:46:34.613Z,14.43
2018-08-23T05:49:01.739Z,14.40
2018-08-23T05:51:30.193Z,15.10
2018-08-23T05:53:57.553Z,12.78
2018-08-23T05:56:24.923Z,14.90
2018-08-23T05:58:53.445Z,15.55
2018-08-23T06:01:20.557Z,15.13
2018-08-23T06:03:47.761Z,13.68
2018-08-23T06:06:14.923Z,13.98
2018-08-23T06:08:47.270Z,14.50
2018-08-23T06:11:15.113Z,13.90
2018-08-23T06:13:42.219Z,15.08
2018-08-23T06:16:09.333Z,14.60
2018-08-23T06:18:36.481Z,16.35
2018-08-23T06:21:10.499Z,15.80
2018-08-23T06:23:58.811Z,13.85
2018-08-23T06:26:38.943Z,14.43
2018-08-23T06:29:06.574Z,13.90
2018-08-23T06:31:33.754Z,14.18
2018-08-23T06:34:00.932Z,13.90
2018-08-23T06:36:29.102Z,14.35
2018-08-23T06:39:00.127Z,14.95
2018-08-23T06:41:27.876Z,15.03
2018-08-23T06:43:55.122Z,14.80
2018-08-23T06:46:22.250Z,14.55
2018-08-23T06:48:49.446Z,14.45
2018-08-23T06:51:16.709Z,14.63
2018-08-23T06:53:44.746Z,15.55
2018-08-23T06:56:11.911Z,16.12
2018-08-23T06:58:39.055Z,14.58
2018-08-23T07:01:11.875Z,15.65
2018-08-23T07:03:45.235Z,15.70
2018-08-23T07:06:12.391Z,14.45
2018-08-23T07:08:39.539Z,15.08
2018-08-23T07:11:12.407Z,16.80
2018-08-23T07:13:39.545Z,14.90
2018-08-23T07:16:06.680Z,16.35
2018-08-23T07:18:33.778Z,15.65
2018-08-23T07:21:00.972Z,17.87
2018-08-23T07:23:29.515Z,14.75
2018-08-23T07:25:56.655Z,15.50
2018-08-23T07:28:23.771Z,15.83
2018-08-23T07:30:52.644Z,14.43
2018-08-23T07:33:19.860Z,14.10
2018-08-23T07:35:52.621Z,16.10
2018-08-23T07:38:19.758Z,14.90
2018-08-23T07:40:46.986Z,13.68
2018-08-23T07:43:14.704Z,12.45
2018-08-23T07:45:41.805Z,12.88
2018-08-23T07:48:08.913Z,14.90
2018-08-23T07:50:36.027Z,12.68
2018-08-23T07:53:03.273Z,13.80
2018-08-23T07:55:30.355Z,13.80
2018-08-23T07:57:57.474Z,14.45
2018-08-23T08:00:25.186Z,13.50
2018-08-23T08:02:52.379Z,12.85
2018-08-23T08:05:19.823Z,11.85
2018-08-23T08:07:47.009Z,12.35
2018-08-23T08:10:18.248Z,11.90
2018-08-23T08:12:50.531Z,11.40
2018-08-23T08:15:18.539Z,11.38
2018-08-23T08:17:45.935Z,13.20
2018-08-23T08:20:13.143Z,13.20
2018-08-23T08:22:40.256Z,15.08
2018-08-23T08:25:13.353Z,15.03
2018-08-23T08:27:40.560Z,18.98
2018-08-23T08:30:09.363Z,17.15
2018-08-23T08:32:36.530Z,16.32
2018-08-23T08:35:03.694Z,17.50
2018-08-23T08:37:30.794Z,18.95
2018-08-23T08:39:57.952Z,18.98
2018-08-23T08:42:25.842Z,17.65
2018-08-23T08:44:55.453Z,16.80
2018-08-23T08:47:22.614Z,19.67
2018-08-23T08:49:49.813Z,18.60
2018-08-23T08:52:17.016Z,18.30
2018-08-23T08:54:44.271Z,20.50
2018-08-23T08:57:11.484Z,17.10
2018-08-23T08:59:38.542Z,14.68
2018-08-23T09:02:05.699Z,17.02
2018-08-23T09:04:35.696Z,18.30
2018-08-23T09:07:02.851Z,15.90
2018-08-23T09:09:31.879Z,17.92
2018-08-23T09:12:01.994Z,18.10
2018-08-23T09:14:29.110Z,18.20
2018-08-23T09:16:56.279Z,16.37
2018-08-23T09:19:33.679Z,17.25
2018-08-23T09:22:05.444Z,18.35
2018-08-23T09:24:32.571Z,18.85
2018-08-23T09:26:59.771Z,17.70
2018-08-23T09:29:35.522Z,14.78
2018-08-23T09:32:15.999Z,16.85
2018-08-23T09:34:43.292Z,14.35
2018-08-23T09:37:10.404Z,15.05
2018-08-23T09:39:38.292Z,16.75
2018-08-23T09:42:05.443Z,15.90
2018-08-23T09:44:32.631Z,17.35
2018-08-23T09:47:04.091Z,15.98
2018-08-23T09:49:31.212Z,13.95
2018-08-23T09:51:58.364Z,13.53
2018-08-23T09:54:28.316Z,14.28
2018-08-23T09:56:55.679Z,10.48
2018-08-23T09:59:22.933Z,12.98
2018-08-23T10:01:55.847Z,14.13
2018-08-23T10:04:28.740Z,12.25
2018-08-23T10:07:01.846Z,12.53
2018-08-23T10:09:30.025Z,13.65
2018-08-23T10:13:02.119Z,11.57
2018-08-23T10:15:35.072Z,11.22
2018-08-23T10:18:07.809Z,11.48
2018-08-23T10:20:43.316Z,11.08
2018-08-23T10:23:16.260Z,10.32
2018-08-23T10:25:48.932Z,10.78
2018-08-23T10:28:17.268Z,10.00
2018-08-23T10:30:44.899Z,10.38
2018-08-23T10:33:12.053Z,9.38
2018-08-23T10:35:43.807Z,9.53
2018-08-23T10:38:13.508Z,9.18
2018-08-23T10:40:40.698Z,13.48
2018-08-23T10:43:07.787Z,10.50
2018-08-23T10:45:34.902Z,9.38
2018-08-23T10:48:07.887Z,11.55
2018-08-23T10:50:35.048Z,9.83
2018-08-23T10:53:02.184Z,8.45
2018-08-23T10:55:29.371Z,6.87
2018-08-23T10:57:56.554Z,7.47
2018-08-23T11:00:23.703Z,6.85
2018-08-23T11:02:50.878Z,7.00
2018-08-23T11:05:18.063Z,7.20
2018-08-23T11:07:51.210Z,5.90
2018-08-23T11:10:24.066Z,6.33
2018-08-23T11:12:57.227Z,6.55
2018-08-23T11:15:25.107Z,6.67
2018-08-23T11:17:58.006Z,6.78
2018-08-23T11:20:26.018Z,5.85
2018-08-23T11:22:53.183Z,5.55
2018-08-23T11:25:21.057Z,4.80
2018-08-23T11:27:48.306Z,4.17
2018-08-23T11:30:15.547Z,4.50
2018-08-23T11:32:42.750Z,3.80
2018-08-23T11:35:10.070Z,3.58
2018-08-23T11:37:37.162Z,3.30
2018-08-23T11:40:04.331Z,3.98
2018-08-23T11:42:31.460Z,4.25
2018-08-23T11:44:58.567Z,3.40
2018-08-23T11:47:25.698Z,3.15
2018-08-23T11:49:52.840Z,3.37
2018-08-23T11:52:20.017Z,3.37
2018-08-23T11:54:47.221Z,3.30
2018-08-23T11:57:14.429Z,3.50
2018-08-23T11:59:41.609Z,3.20
2018-08-23T12:02:08.785Z,3.00
2018-08-23T12:04:35.923Z,2.70
2018-08-23T12:07:03.039Z,3.22
2018-08-23T12:09:31.075Z,3.40
2018-08-23T12:11:58.207Z,2.60
2018-08-23T12:14:25.465Z,2.25
2018-08-23T12:16:53.037Z,2.62
2018-08-23T12:19:20.235Z,2.42
2018-08-23T12:21:47.580Z,2.30
2018-08-23T12:24:14.741Z,2.60
2018-08-23T12:26:41.871Z,2.80
2018-08-23T12:29:09.529Z,2.33
2018-08-23T12:31:36.884Z,2.10
2018-08-23T12:34:06.116Z,2.70
2018-08-23T12:36:39.885Z,2.80
2018-08-23T12:39:13.976Z,2.58
2018-08-23T12:41:47.485Z,2.50
2018-08-23T12:44:14.710Z,2.08
2018-08-23T12:46:41.872Z,2.55
2018-08-23T12:49:08.980Z,2.35
2018-08-23T12:51:36.139Z,2.30
2018-08-23T12:54:03.284Z,1.82
2018-08-23T12:56:30.477Z,2.10
2018-08-23T12:58:57.711Z,2.40
2018-08-23T13:01:24.919Z,2.47
2018-08-23T13:03:52.201Z,2.45
2018-08-23T13:06:19.334Z,2.35
2018-08-23T13:08:46.510Z,2.42
2018-08-23T13:11:14.763Z,2.27
2018-08-23T13:13:41.847Z,2.27
2018-08-23T13:16:08.984Z,2.45
2018-08-23T13:18:36.099Z,2.50
2018-08-23T13:21:03.243Z,2.30
2018-08-23T13:23:30.376Z,2.45
2018-08-23T13:25:58.367Z,3.02
2018-08-23T13:28:26.538Z,2.42
2018-08-23T13:30:53.899Z,2.98
2018-08-23T13:33:21.423Z,2.80
2018-08-23T13:35:48.951Z,2.98
2018-08-23T13:38:16.377Z,2.52
2018-08-23T13:40:43.512Z,2.90
2018-08-23T13:43:10.647Z,2.75
2018-08-23T13:45:37.763Z,2.75
2018-08-23T13:48:05.247Z,2.77
2018-08-23T13:50:32.386Z,2.90
2018-08-23T13:52:59.503Z,2.80
2018-08-23T13:55:26.606Z,2.85
2018-08-23T13:57:53.804Z,3.15
2018-08-23T14:00:28.574Z,2.80
2018-08-23T14:02:56.560Z,2.80
2018-08-23T14:05:23.693Z,2.90
2018-08-23T14:07:50.877Z,2.70
2018-08-23T14:10:18.128Z,2.47
2018-08-23T14:12:45.405Z,3.05
2018-08-23T14:15:18.127Z,2.85
2018-08-23T14:17:45.341Z,2.80
2018-08-23T14:20:12.470Z,2.55
2018-08-23T14:22:39.587Z,3.08
2018-08-23T14:25:06.768Z,2.47
2018-08-23T14:27:33.931Z,2.75
2018-08-23T14:30:01.048Z,2.77
2018-08-23T14:32:28.147Z,2.83
2018-08-23T14:34:55.238Z,3.00
2018-08-23T14:37:22.404Z,2.70
2018-08-23T14:39:49.599Z,2.90
2018-08-23T14:42:16.790Z,3.05
2018-08-23T14:44:44.005Z,2.60
2018-08-23T14:47:16.777Z,2.67
2018-08-23T14:49:43.939Z,2.72
2018-08-23T14:52:11.047Z,3.00
2018-08-23T14:54:40.708Z,2.98
2018-08-23T14:57:13.608Z,2.40
2018-08-23T14:59:41.075Z,2.62
2018-08-23T15:02:08.636Z,2.47
2018-08-23T15:04:36.021Z,2.67
2018-08-23T15:07:03.208Z,2.70
2018-08-23T15:09:30.390Z,2.70
2018-08-23T15:11:58.926Z,2.30
2018-08-23T15:14:26.349Z,2.77
2018-08-23T15:16:53.462Z,2.58
2018-08-23T15:19:20.736Z,2.77
2018-08-23T15:21:47.973Z,2.33
2018-08-23T15:24:15.139Z,2.47
2018-08-23T15:26:42.413Z,3.02
2018-08-23T15:29:11.306Z,3.20
2018-08-23T15:31:38.438Z,2.98
2018-08-23T15:34:05.727Z,2.60
2018-08-23T15:36:32.819Z,2.80
2018-08-23T15:38:59.941Z,2.95
2018-08-23T15:41:27.052Z,3.00
2018-08-23T15:43:54.193Z,3.10
2018-08-23T15:46:21.479Z,2.83
2018-08-23T15:48:48.689Z,2.67
2018-08-23T15:51:15.911Z,2.85
2018-08-23T15:53:43.051Z,2.90
2018-08-23T15:56:10.309Z,2.92
2018-08-23T15:58:37.327Z,3.08
2018-08-23T16:01:04.619Z,2.83
2018-08-23T16:03:31.744Z,2.98
2018-08-23T16:05:58.888Z,2.90
2018-08-23T16:08:26.063Z,2.50
2018-08-23T16:10:53.251Z,2.72
2018-08-23T16:13:20.422Z,3.08
2018-08-23T16:15:52.366Z,2.85
2018-08-23T16:18:25.460Z,3.12
2018-08-23T16:20:54.896Z,2.98
2018-08-23T16:23:22.050Z,3.10
2018-08-23T16:25:49.189Z,3.02
2018-08-23T16:28:16.372Z,3.08
2018-08-23T16:30:44.034Z,3.02
2018-08-23T16:33:11.694Z,3.05
2018-08-23T16:35:39.071Z,3.00
2018-08-23T16:38:06.209Z,2.95
2018-08-23T16:40:33.264Z,2.42
2018-08-23T16:43:01.903Z,2.80
2018-08-23T16:45:29.278Z,2.80
2018-08-23T16:47:56.466Z,2.60
2018-08-23T16:50:23.643Z,2.90
2018-08-23T16:52:50.955Z,3.30
2018-08-23T16:55:18.084Z,2.67
2018-08-23T16:57:45.444Z,3.15
2018-08-23T17:00:12.672Z,3.08
2018-08-23T17:02:39.819Z,3.27
2018-08-23T17:05:06.847Z,3.33
2018-08-23T17:07:33.996Z,2.47
2018-08-23T17:10:01.217Z,2.90
2018-08-23T17:12:28.259Z,3.00
2018-08-23T17:14:55.402Z,3.20
2018-08-23T17:17:34.589Z,3.05
2018-08-23T17:20:01.751Z,2.87
2018-08-23T17:22:29.355Z,3.60
2018-08-23T17:24:56.576Z,2.62
2018-08-23T17:27:23.643Z,2.85
2018-08-23T17:29:50.776Z,3.45
2018-08-23T17:32:17.959Z,3.00
2018-08-23T17:34:45.150Z,3.52
2018-08-23T17:37:12.239Z,2.70
2018-08-23T17:39:39.355Z,3.08
2018-08-23T17:42:06.569Z,3.20
2018-08-23T17:44:33.891Z,2.95
2018-08-23T17:47:01.238Z,3.35
2018-08-23T17:49:28.624Z,3.37
2018-08-23T17:51:55.726Z,3.00
2018-08-23T17:54:22.827Z,3.50
2018-08-23T17:56:50.071Z,3.50
2018-08-23T17:59:17.265Z,3.00
2018-08-23T18:01:44.444Z,2.92
2018-08-23T18:04:11.599Z,3.33
2018-08-23T18:06:38.731Z,3.37
2018-08-23T18:09:07.640Z,3.08
2018-08-23T18:11:34.753Z,3.52
2018-08-23T18:14:01.873Z,3.60
2018-08-23T18:16:34.805Z,3.37
2018-08-23T18:19:01.975Z,3.67
2018-08-23T18:21:29.092Z,3.55
2018-08-23T18:23:56.194Z,4.10
2018-08-23T18:26:23.359Z,3.95
2018-08-23T18:28:50.507Z,3.50
2018-08-23T18:31:17.643Z,3.08
2018-08-23T18:33:44.803Z,3.62
2018-08-23T18:36:11.902Z,3.22
2018-08-23T18:38:39.051Z,3.05
2018-08-23T18:41:06.177Z,2.77
2018-08-23T18:43:33.370Z,3.45
2018-08-23T18:46:00.491Z,3.52
2018-08-23T18:48:27.651Z,3.25
2018-08-23T18:50:54.795Z,2.80
2018-08-23T18:53:21.914Z,2.33
2018-08-23T18:55:49.191Z,2.90
2018-08-23T18:58:16.421Z,2.95
2018-08-23T19:00:43.570Z,2.67
2018-08-23T19:03:10.698Z,3.08
2018-08-23T19:05:37.851Z,2.98
2018-08-23T19:08:05.300Z,2.45
2018-08-23T19:10:32.448Z,2.50
2018-08-23T19:12:59.759Z,2.55
2018-08-23T19:17:35.237Z,3.22
2018-08-23T19:20:02.431Z,2.37
2018-08-23T19:22:29.590Z,2.80
2018-08-23T19:24:56.765Z,3.10
2018-08-23T19:27:23.883Z,2.75
2018-08-23T19:29:51.023Z,2.95
2018-08-23T19:32:18.208Z,3.03
2018-08-23T19:34:45.804Z,3.20
2018-08-23T19:37:13.008Z,3.20
2018-08-23T19:39:40.153Z,3.08
2018-08-23T19:42:07.266Z,3.17
2018-08-23T19:44:39.035Z,3.58
2018-08-23T19:47:11.862Z,3.58
2018-08-23T19:49:56.239Z,3.35
2018-08-23T19:52:23.371Z,3.37
2018-08-23T19:54:51.119Z,2.98
2018-08-23T19:57:18.328Z,3.20
2018-08-23T19:59:45.743Z,3.80
2018-08-23T20:02:12.875Z,3.12
2018-08-23T20:04:40.820Z,2.85
2018-08-23T20:07:07.918Z,3.12
2018-08-23T20:09:35.083Z,3.05
2018-08-23T20:12:02.231Z,2.83
2018-08-23T20:14:29.363Z,3.08
2018-08-23T20:16:56.501Z,3.35
2018-08-23T20:19:23.625Z,3.37
2018-08-23T20:21:50.795Z,3.23
2018-08-23T20:24:18.059Z,3.33
2018-08-23T20:26:45.263Z,3.90
2018-08-23T20:29:12.390Z,3.20
2018-08-23T20:31:39.670Z,3.52
2018-08-23T20:34:06.798Z,3.45
2018-08-23T20:36:33.930Z,3.10
2018-08-23T20:39:01.116Z,3.62
2018-08-23T20:41:28.253Z,3.90
2018-08-23T20:43:55.350Z,3.37
2018-08-23T20:46:22.493Z,3.65
2018-08-23T20:48:49.660Z,4.25
2018-08-23T20:51:17.144Z,3.15
2018-08-23T20:53:44.288Z,3.92
2018-08-23T20:56:11.477Z,3.67
2018-08-23T20:58:38.659Z,3.02
2018-08-23T21:01:05.912Z,3.67
2018-08-23T21:03:33.066Z,3.17
2018-08-23T21:06:00.185Z,3.00
2018-08-23T21:08:27.348Z,2.70
2018-08-23T21:10:54.455Z,3.50
2018-08-23T21:13:21.592Z,2.95
2018-08-23T21:15:48.786Z,3.30
2018-08-23T21:18:16.027Z,3.47
2018-08-23T21:20:43.166Z,3.07
2018-08-23T21:23:10.302Z,3.10
2018-08-23T21:25:37.419Z,3.33
2018-08-23T21:28:04.623Z,3.07
2018-08-23T21:30:31.783Z,2.97
2018-08-23T21:32:58.894Z,2.60
2018-08-23T21:35:26.177Z,3.40
2018-08-23T21:37:54.054Z,3.80
2018-08-23T21:40:21.211Z,3.20
2018-08-23T21:42:48.384Z,3.10
2018-08-23T21:45:15.559Z,3.10
2018-08-23T21:47:42.695Z,3.10
2018-08-23T21:50:09.810Z,3.27
2018-08-23T21:52:36.933Z,3.17
2018-08-23T21:55:04.327Z,3.27
2018-08-23T21:57:31.960Z,2.90
2018-08-23T21:59:59.124Z,3.50
2018-08-23T22:02:26.315Z,4.00
2018-08-23T22:04:55.148Z,3.10
2018-08-23T22:07:22.790Z,3.30
2018-08-23T22:09:51.208Z,3.10
2018-08-23T22:12:20.123Z,2.83
2018-08-23T22:14:47.822Z,3.03
2018-08-23T22:17:15.056Z,2.87
2018-08-23T22:19:42.232Z,2.93
2018-08-23T22:22:09.835Z,2.80
2018-08-23T22:24:37.105Z,2.90
2018-08-23T22:27:04.752Z,3.17
2018-08-23T22:29:31.820Z,2.90
2018-08-23T22:31:58.918Z,2.90
2018-08-23T22:34:26.104Z,3.13
2018-08-23T22:36:53.251Z,3.00
2018-08-23T22:39:20.386Z,2.83
2018-08-23T22:41:47.791Z,3.20
2018-08-23T22:44:15.805Z,3.17
2018-08-23T22:46:44.062Z,2.93
2018-08-23T22:49:11.291Z,3.40
2018-08-23T22:51:38.452Z,3.53
2018-08-23T22:54:05.410Z,3.30
2018-08-23T22:56:32.563Z,3.10
2018-08-23T22:58:59.752Z,3.40
2018-08-23T23:01:26.925Z,3.10
2018-08-23T23:03:59.759Z,3.33
2018-08-23T23:06:26.939Z,2.90
2018-08-23T23:08:54.050Z,3.40
2018-08-23T23:11:21.151Z,3.57
2018-08-23T23:13:48.396Z,3.10
2018-08-23T23:16:15.604Z,3.40
2018-08-23T23:18:42.708Z,3.60
2018-08-23T23:21:09.841Z,3.20
2018-08-23T23:23:37.038Z,2.87
2018-08-23T23:26:04.177Z,3.90
2018-08-23T23:28:31.282Z,3.10
2018-08-23T23:30:58.423Z,2.60
2018-08-23T23:33:25.546Z,3.50
2018-08-23T23:35:52.698Z,2.97
2018-08-23T23:38:19.863Z,3.30
2018-08-23T23:40:47.080Z,2.80
2018-08-23T23:43:14.217Z,3.53
2018-08-23T23:45:41.353Z,3.07
2018-08-23T23:48:08.471Z,3.57
2018-08-23T23:50:35.586Z,3.60
2018-08-23T23:53:02.718Z,3.60
2018-08-23T23:55:29.862Z,3.53
2018-08-23T23:57:57.036Z,4.63
